createdAt,value
2023-10-29T00:02:13.132Z,20.73
2023-10-29T00:04:40.384Z,20.17
2023-10-29T00:07:07.575Z,20.13
2023-10-29T00:09:34.763Z,20.53
2023-10-29T00:12:01.922Z,20.93
2023-10-29T00:14:30.455Z,21.13
2023-10-29T00:16:58.524Z,20.17
2023-10-29T00:19:25.736Z,20.17
2023-10-29T00:21:53.455Z,20.83
2023-10-29T00:24:20.981Z,19.97
2023-10-29T00:26:48.090Z,19.27
2023-10-29T00:29:15.232Z,21.20
2023-10-29T00:31:42.950Z,20.47
2023-10-29T00:34:10.145Z,21.67
2023-10-29T00:36:37.294Z,20.10
2023-10-29T00:39:04.734Z,21.03
2023-10-29T00:41:32.137Z,21.40
2023-10-29T00:43:59.440Z,21.07
2023-10-29T00:46:27.088Z,21.03
2023-10-29T00:48:54.353Z,20.27
2023-10-29T00:51:21.672Z,20.87
2023-10-29T00:53:49.139Z,21.20
2023-10-29T00:56:19.738Z,20.50
2023-10-29T00:58:48.313Z,29.10
2023-10-29T01:01:15.577Z,21.53
2023-10-29T01:03:43.010Z,20.57
2023-10-29T01:06:11.770Z,20.73
2023-10-29T01:08:39.657Z,21.83
2023-10-29T01:11:08.242Z,21.40
2023-10-29T01:13:35.734Z,20.67
2023-10-29T01:16:06.207Z,19.87
2023-10-29T01:18:33.937Z,19.73
2023-10-29T01:21:01.557Z,20.47
2023-10-29T01:23:29.891Z,20.17
2023-10-29T01:26:01.475Z,19.97
2023-10-29T01:28:32.675Z,20.63
2023-10-29T01:31:01.147Z,20.77
2023-10-29T01:33:28.411Z,19.27
2023-10-29T01:35:56.563Z,18.57
2023-10-29T01:38:23.764Z,18.80
2023-10-29T01:40:51.080Z,17.83
2023-10-29T01:43:18.297Z,17.20
2023-10-29T01:45:45.758Z,16.13
2023-10-29T01:48:13.264Z,17.13
2023-10-29T01:50:40.836Z,16.33
2023-10-29T01:53:08.092Z,16.47
2023-10-29T01:55:38.440Z,15.50
2023-10-29T01:58:05.748Z,15.43
2023-10-29T02:00:33.041Z,14.93
2023-10-29T02:03:00.941Z,14.80
2023-10-29T02:05:28.266Z,14.23
2023-10-29T02:07:56.761Z,14.37
2023-10-29T02:10:26.681Z,14.27
2023-10-29T02:12:54.505Z,13.57
2023-10-29T02:15:21.734Z,13.20
2023-10-29T02:17:49.066Z,12.33
2023-10-29T02:20:16.618Z,13.20
2023-10-29T02:22:43.776Z,12.40
2023-10-29T02:25:10.934Z,12.63
2023-10-29T02:27:38.145Z,12.40
2023-10-29T02:30:06.280Z,11.53
2023-10-29T02:32:33.489Z,12.53
2023-10-29T02:35:00.768Z,13.13
2023-10-29T02:37:27.940Z,11.53
2023-10-29T02:39:55.121Z,12.93
2023-10-29T02:42:22.369Z,13.13
2023-10-29T02:44:49.820Z,12.90
2023-10-29T02:47:17.182Z,13.10
2023-10-29T02:49:44.364Z,12.47
2023-10-29T02:52:49.202Z,13.23
2023-10-29T02:55:53.625Z,12.23
2023-10-29T02:58:21.503Z,13.60
2023-10-29T03:00:49.382Z,13.77
2023-10-29T03:03:16.664Z,13.00
2023-10-29T03:05:56.101Z,12.83
2023-10-29T03:08:25.097Z,12.60
2023-10-29T03:10:52.915Z,13.73
2023-10-29T03:13:20.145Z,12.90
2023-10-29T03:15:47.331Z,11.73
2023-10-29T03:18:15.518Z,12.23
2023-10-29T03:20:47.052Z,12.13
2023-10-29T03:23:17.498Z,12.17
2023-10-29T03:25:48.377Z,12.67
2023-10-29T03:28:20.750Z,12.07
2023-10-29T03:30:47.858Z,11.53
2023-10-29T03:33:15.061Z,10.93
2023-10-29T03:35:42.300Z,12.13
2023-10-29T03:38:09.503Z,10.87
2023-10-29T03:40:38.193Z,11.47
2023-10-29T03:43:05.417Z,10.83
2023-10-29T03:45:33.338Z,10.20
2023-10-29T03:48:01.787Z,11.23
2023-10-29T03:50:29.152Z,10.13
2023-10-29T03:52:56.301Z,11.07
2023-10-29T03:55:23.655Z,10.23
2023-10-29T03:57:50.774Z,10.23
2023-10-29T04:00:18.171Z,9.83
2023-10-29T04:02:45.658Z,10.33
2023-10-29T04:05:13.089Z,11.00
2023-10-29T04:07:40.576Z,11.17
2023-10-29T04:10:09.406Z,11.50
2023-10-29T04:12:38.004Z,12.10
2023-10-29T04:17:33.695Z,11.70
2023-10-29T04:20:01.020Z,11.50
2023-10-29T04:22:28.277Z,12.27
2023-10-29T04:24:55.425Z,11.10
2023-10-29T04:27:22.558Z,12.17
2023-10-29T04:29:49.976Z,12.23
2023-10-29T04:32:17.176Z,11.70
2023-10-29T04:34:44.338Z,11.53
2023-10-29T04:37:11.478Z,12.03
2023-10-29T04:39:39.723Z,12.17
2023-10-29T04:42:06.969Z,12.23
2023-10-29T04:44:35.006Z,12.90
2023-10-29T04:47:04.891Z,11.40
2023-10-29T04:49:32.146Z,12.23
2023-10-29T04:51:59.385Z,11.47
2023-10-29T04:54:26.609Z,12.57
2023-10-29T04:56:53.866Z,12.90
2023-10-29T04:59:21.048Z,12.27
2023-10-29T05:01:48.254Z,11.43
2023-10-29T05:04:15.855Z,11.33
2023-10-29T05:06:43.053Z,11.03
2023-10-29T05:09:10.677Z,10.47
2023-10-29T05:11:37.856Z,11.30
2023-10-29T05:14:05.260Z,11.37
2023-10-29T05:16:32.751Z,10.63
2023-10-29T05:19:01.329Z,10.53
2023-10-29T05:21:28.889Z,10.57
2023-10-29T05:23:56.187Z,11.47
2023-10-29T05:26:23.925Z,11.13
2023-10-29T05:28:51.320Z,11.33
2023-10-29T05:31:18.575Z,10.60
2023-10-29T05:33:45.769Z,12.40
2023-10-29T05:36:12.919Z,11.27
2023-10-29T05:38:40.095Z,11.53
2023-10-29T05:41:07.336Z,11.83
2023-10-29T05:43:35.610Z,13.03
2023-10-29T05:46:02.830Z,12.83
2023-10-29T05:48:30.053Z,12.03
2023-10-29T05:50:57.309Z,11.77
2023-10-29T05:53:24.457Z,12.50
2023-10-29T05:55:52.066Z,3.73
2023-10-29T05:58:19.174Z,4.40
2023-10-29T06:00:46.527Z,3.20
2023-10-29T06:03:13.835Z,4.30
2023-10-29T06:05:40.988Z,3.57
2023-10-29T06:08:08.142Z,3.07
2023-10-29T06:10:35.376Z,3.70
2023-10-29T06:13:02.593Z,1.40
2023-10-29T06:15:29.956Z,0.50
2023-10-29T06:17:57.190Z,1.00
2023-10-29T06:20:24.599Z,0.60
2023-10-29T06:22:51.896Z,0.43
2023-10-29T06:25:19.309Z,0.70
2023-10-29T06:27:46.549Z,0.90
2023-10-29T06:30:13.855Z,0.40
2023-10-29T06:32:41.678Z,0.30
2023-10-29T06:35:09.300Z,0.67
2023-10-29T06:37:36.686Z,0.50
2023-10-29T06:40:04.289Z,0.30
2023-10-29T06:42:31.519Z,0.30
2023-10-29T06:44:58.813Z,0.30
2023-10-29T06:47:26.073Z,0.30
2023-10-29T06:49:53.302Z,0.33
2023-10-29T06:52:20.418Z,0.30
2023-10-29T06:54:47.782Z,0.20
2023-10-29T06:57:15.196Z,0.50
2023-10-29T06:59:42.494Z,0.30
2023-10-29T07:02:09.756Z,0.30
2023-10-29T07:04:37.522Z,0.30
2023-10-29T07:07:04.798Z,0.40
2023-10-29T07:09:32.752Z,0.30
2023-10-29T07:11:59.920Z,0.20
2023-10-29T07:14:27.148Z,0.20
2023-10-29T07:16:54.418Z,0.33
2023-10-29T07:19:21.693Z,0.30
2023-10-29T07:21:48.885Z,0.20
2023-10-29T07:24:16.193Z,0.40
2023-10-29T07:26:43.415Z,0.30
2023-10-29T07:29:12.692Z,0.20
2023-10-29T07:31:40.000Z,0.30
2023-10-29T07:34:07.316Z,0.20
2023-10-29T07:36:34.549Z,0.30
2023-10-29T07:39:01.969Z,0.20
2023-10-29T07:41:29.148Z,0.30
2023-10-29T07:43:56.384Z,0.30
2023-10-29T07:46:23.549Z,0.20
2023-10-29T07:48:50.705Z,0.33
2023-10-29T07:51:17.867Z,0.30
2023-10-29T07:53:45.117Z,0.30
2023-10-29T07:56:14.755Z,0.30
2023-10-29T07:58:42.500Z,0.30
2023-10-29T08:01:18.223Z,0.37
2023-10-29T08:03:47.155Z,0.20
2023-10-29T08:06:15.243Z,0.20
2023-10-29T08:08:42.495Z,0.30
2023-10-29T08:11:20.020Z,0.30
2023-10-29T08:13:47.677Z,0.30
2023-10-29T08:16:15.074Z,0.37
2023-10-29T08:18:42.767Z,0.60
2023-10-29T08:21:10.128Z,0.30
2023-10-29T08:23:37.457Z,0.20
2023-10-29T08:26:04.973Z,0.20
2023-10-29T08:28:32.371Z,0.33
2023-10-29T08:30:59.738Z,0.20
2023-10-29T08:33:27.928Z,0.20
2023-10-29T08:35:55.302Z,0.40
2023-10-29T08:38:22.440Z,0.20
2023-10-29T08:40:49.605Z,0.30
2023-10-29T08:43:17.305Z,0.47
2023-10-29T08:45:44.632Z,0.30
2023-10-29T08:48:12.163Z,0.30
2023-10-29T08:50:40.316Z,0.40
2023-10-29T08:53:07.764Z,0.20
2023-10-29T08:55:38.539Z,0.30
2023-10-29T08:58:05.713Z,0.30
2023-10-29T09:00:45.279Z,0.20
2023-10-29T09:03:15.427Z,0.20
2023-10-29T09:05:44.041Z,0.30
2023-10-29T09:08:12.104Z,0.30
2023-10-29T09:10:43.669Z,0.30
2023-10-29T09:13:11.655Z,0.30
2023-10-29T09:15:39.391Z,0.30
2023-10-29T09:18:07.854Z,0.20
2023-10-29T09:20:35.928Z,0.30
2023-10-29T09:23:03.192Z,0.30
2023-10-29T09:25:30.441Z,0.30
2023-10-29T09:27:59.251Z,0.20
2023-10-29T09:30:26.661Z,0.30
2023-10-29T09:32:55.205Z,0.27
2023-10-29T09:35:24.700Z,0.30
2023-10-29T09:37:52.077Z,0.30
2023-10-29T09:40:20.238Z,0.30
2023-10-29T09:42:57.099Z,0.77
2023-10-29T09:45:28.481Z,0.30
2023-10-29T09:47:57.528Z,0.30
2023-10-29T09:50:25.020Z,0.27
2023-10-29T09:52:54.126Z,0.43
2023-10-29T09:55:23.416Z,0.30
2023-10-29T09:57:51.472Z,0.30
2023-10-29T10:00:19.616Z,0.80
2023-10-29T10:02:58.222Z,0.30
2023-10-29T10:05:29.222Z,0.40
2023-10-29T10:07:57.298Z,0.30
2023-10-29T10:10:45.345Z,0.30
2023-10-29T10:13:13.334Z,0.30
2023-10-29T10:15:42.276Z,0.30
2023-10-29T10:18:09.662Z,0.20
2023-10-29T10:20:37.651Z,0.83
2023-10-29T10:23:12.102Z,0.30
2023-10-29T10:25:39.591Z,0.87
2023-10-29T10:28:07.746Z,1.00
2023-10-29T10:30:39.716Z,1.67
2023-10-29T10:33:23.617Z,1.90
2023-10-29T10:35:52.999Z,3.00
2023-10-29T10:38:21.682Z,5.00
2023-10-29T10:40:59.807Z,2.30
2023-10-29T10:43:28.621Z,3.17
2023-10-29T10:45:56.581Z,2.40
2023-10-29T10:48:24.522Z,2.30
2023-10-29T10:50:54.281Z,2.10
2023-10-29T10:53:25.361Z,1.93
2023-10-29T10:56:03.250Z,1.60
2023-10-29T10:58:32.550Z,1.70
2023-10-29T11:01:00.800Z,1.80
2023-10-29T11:03:34.475Z,1.63
2023-10-29T11:06:09.733Z,1.50
2023-10-29T11:08:37.286Z,1.90
2023-10-29T11:11:06.597Z,14.63
2023-10-29T11:13:33.790Z,1.47
2023-10-29T11:16:05.030Z,1.50
2023-10-29T11:18:35.089Z,2.07
2023-10-29T11:21:06.041Z,1.90
2023-10-29T11:23:34.466Z,1.60
2023-10-29T11:26:22.617Z,1.37
2023-10-29T11:28:52.727Z,1.70
2023-10-29T11:31:26.304Z,1.40
2023-10-29T11:33:56.228Z,1.53
2023-10-29T11:36:33.763Z,1.30
2023-10-29T11:39:16.565Z,1.20
2023-10-29T11:41:46.131Z,1.53
2023-10-29T11:44:22.063Z,1.07
2023-10-29T11:47:03.485Z,1.30
2023-10-29T11:50:03.897Z,1.23
2023-10-29T11:52:43.747Z,1.37
2023-10-29T11:55:12.146Z,1.40
2023-10-29T11:57:44.599Z,1.27
2023-10-29T12:00:12.904Z,1.63
2023-10-29T12:02:43.089Z,1.37
2023-10-29T12:05:18.382Z,1.40
2023-10-29T12:08:02.271Z,1.50
2023-10-29T12:10:35.963Z,1.27
2023-10-29T12:13:09.430Z,1.20
2023-10-29T12:15:37.521Z,1.10
2023-10-29T12:18:04.918Z,1.20
2023-10-29T12:20:32.541Z,1.30
2023-10-29T12:23:04.213Z,1.23
2023-10-29T12:25:34.472Z,1.30
2023-10-29T12:28:02.199Z,1.13
2023-10-29T12:30:47.335Z,1.23
2023-10-29T12:33:30.734Z,1.43
2023-10-29T12:36:00.763Z,1.60
2023-10-29T12:38:28.757Z,1.30
2023-10-29T12:41:14.888Z,1.23
2023-10-29T12:43:55.215Z,1.30
2023-10-29T12:46:27.201Z,1.30
2023-10-29T12:49:10.480Z,1.17
2023-10-29T12:51:42.214Z,1.50
2023-10-29T12:54:19.302Z,1.40
2023-10-29T12:56:55.255Z,1.20
2023-10-29T12:59:27.943Z,1.40
2023-10-29T13:01:58.005Z,1.10
2023-10-29T13:04:27.689Z,1.33
2023-10-29T13:06:56.737Z,1.30
2023-10-29T13:09:26.569Z,1.30
2023-10-29T13:11:55.622Z,1.10
2023-10-29T13:14:23.630Z,1.20
2023-10-29T13:16:54.302Z,1.37
2023-10-29T13:19:22.750Z,1.40
2023-10-29T13:21:53.729Z,1.37
2023-10-29T13:24:24.708Z,1.20
2023-10-29T13:26:53.582Z,1.30
2023-10-29T13:29:21.871Z,1.30
2023-10-29T13:31:49.149Z,1.53
2023-10-29T13:34:17.012Z,1.30
2023-10-29T13:36:45.138Z,1.40
2023-10-29T13:39:12.559Z,1.10
2023-10-29T13:41:41.176Z,1.23
2023-10-29T13:44:08.667Z,1.10
2023-10-29T13:46:36.070Z,1.23
2023-10-29T13:49:04.113Z,1.30
2023-10-29T13:51:31.459Z,1.50
2023-10-29T13:53:58.849Z,1.30
2023-10-29T13:56:27.055Z,1.40
2023-10-29T13:58:54.607Z,1.77
2023-10-29T14:01:23.753Z,1.20
2023-10-29T14:03:56.962Z,1.33
2023-10-29T14:06:24.619Z,1.50
2023-10-29T14:08:51.856Z,1.23
2023-10-29T14:11:20.805Z,1.10
2023-10-29T14:13:51.205Z,1.23
2023-10-29T14:16:19.645Z,7.67
2023-10-29T14:18:47.420Z,34.03
2023-10-29T14:21:14.802Z,1.33
2023-10-29T14:23:42.500Z,1.20
2023-10-29T14:26:10.000Z,1.10
2023-10-29T14:28:37.250Z,2.03
2023-10-29T14:31:04.714Z,1.40
2023-10-29T14:33:32.196Z,1.20
2023-10-29T14:35:59.789Z,1.10
2023-10-29T14:38:28.500Z,1.10
2023-10-29T14:40:57.094Z,1.20
2023-10-29T14:43:25.215Z,1.10
2023-10-29T14:45:55.623Z,1.20
2023-10-29T14:48:22.941Z,1.20
2023-10-29T14:50:52.501Z,2.27
2023-10-29T14:53:19.848Z,1.63
2023-10-29T14:55:48.407Z,1.40
2023-10-29T14:58:18.631Z,1.10
2023-10-29T15:00:46.259Z,1.30
2023-10-29T15:03:14.244Z,1.23
2023-10-29T15:05:41.757Z,1.27
2023-10-29T15:08:09.413Z,1.33
2023-10-29T15:10:36.864Z,1.20
2023-10-29T15:13:04.407Z,1.23
2023-10-29T15:15:33.258Z,1.37
2023-10-29T15:18:00.545Z,1.23
2023-10-29T15:20:28.398Z,1.27
2023-10-29T15:22:56.019Z,1.40
2023-10-29T15:25:24.436Z,2.00
2023-10-29T15:27:51.803Z,1.27
2023-10-29T15:30:19.298Z,2.50
2023-10-29T15:32:46.777Z,1.20
2023-10-29T15:35:14.467Z,1.20
2023-10-29T15:37:43.931Z,1.47
2023-10-29T15:40:11.519Z,5.57
2023-10-29T15:42:38.927Z,2.03
2023-10-29T15:45:06.822Z,1.50
2023-10-29T15:47:34.043Z,1.40
2023-10-29T15:50:01.747Z,1.77
2023-10-29T15:52:28.923Z,2.10
2023-10-29T15:54:56.171Z,2.27
2023-10-29T15:57:24.309Z,1.80
2023-10-29T15:59:51.725Z,1.73
2023-10-29T16:02:18.944Z,1.87
2023-10-29T16:04:46.238Z,1.80
2023-10-29T16:07:13.470Z,1.57
2023-10-29T16:09:40.726Z,1.40
2023-10-29T16:12:09.917Z,1.73
2023-10-29T16:14:37.281Z,1.57
2023-10-29T16:17:05.081Z,1.57
2023-10-29T16:19:32.458Z,1.50
2023-10-29T16:21:59.726Z,1.60
2023-10-29T16:24:29.389Z,1.20
2023-10-29T16:26:58.006Z,1.77
2023-10-29T16:29:25.640Z,1.83
2023-10-29T16:31:52.865Z,2.13
2023-10-29T16:34:21.658Z,1.80
2023-10-29T16:36:48.804Z,2.60
2023-10-29T16:39:16.001Z,1.90
2023-10-29T16:41:43.098Z,1.93
2023-10-29T16:44:14.890Z,2.20
2023-10-29T16:46:44.332Z,2.70
2023-10-29T16:49:11.473Z,2.43
2023-10-29T16:51:38.793Z,1.90
2023-10-29T16:54:06.326Z,1.93
2023-10-29T16:56:33.547Z,2.40
2023-10-29T16:59:01.127Z,2.30
2023-10-29T17:01:28.368Z,1.80
2023-10-29T17:03:55.642Z,2.10
2023-10-29T17:06:22.822Z,2.30
2023-10-29T17:08:50.055Z,2.23
2023-10-29T17:11:17.846Z,2.40
2023-10-29T17:13:46.000Z,2.10
2023-10-29T17:16:13.094Z,2.10
2023-10-29T17:18:40.241Z,2.17
2023-10-29T17:21:15.465Z,2.10
2023-10-29T17:23:47.414Z,2.40
2023-10-29T17:26:15.491Z,2.20
2023-10-29T17:28:47.646Z,2.27
2023-10-29T17:31:24.024Z,2.10
2023-10-29T17:33:51.380Z,2.10
2023-10-29T17:36:19.181Z,2.17
2023-10-29T17:38:46.660Z,1.67
2023-10-29T17:41:19.335Z,1.80
2023-10-29T17:43:47.551Z,2.00
2023-10-29T17:46:20.105Z,4.33
2023-10-29T17:48:52.940Z,1.63
2023-10-29T17:51:20.336Z,1.77
2023-10-29T17:53:49.933Z,1.67
2023-10-29T17:56:21.040Z,1.80
2023-10-29T17:58:52.352Z,1.70
2023-10-29T18:01:20.927Z,1.90
2023-10-29T18:03:51.990Z,2.40
2023-10-29T18:06:22.825Z,2.20
2023-10-29T18:08:51.120Z,2.00
2023-10-29T18:11:19.111Z,1.90
2023-10-29T18:13:47.022Z,2.00
2023-10-29T18:16:14.521Z,1.70
2023-10-29T18:18:41.824Z,1.87
2023-10-29T18:21:09.091Z,2.23
2023-10-29T18:23:36.353Z,3.20
2023-10-29T18:26:04.188Z,3.37
2023-10-29T18:28:32.220Z,11.17
2023-10-29T18:31:05.593Z,2.80
2023-10-29T18:33:32.853Z,1.80
2023-10-29T18:36:10.755Z,3.00
2023-10-29T18:38:38.496Z,1.60
2023-10-29T18:41:19.842Z,2.00
2023-10-29T18:43:47.665Z,1.70
2023-10-29T18:46:16.065Z,1.90
2023-10-29T18:48:43.452Z,1.73
2023-10-29T18:51:10.842Z,1.60
2023-10-29T18:53:38.068Z,1.60
2023-10-29T18:56:05.963Z,1.83
2023-10-29T18:58:33.198Z,2.03
2023-10-29T19:01:09.415Z,2.00
2023-10-29T19:03:37.225Z,1.80
2023-10-29T19:06:12.928Z,1.60
2023-10-29T19:08:41.309Z,2.23
2023-10-29T19:11:10.206Z,1.80
2023-10-29T19:13:37.582Z,1.77
2023-10-29T19:16:08.378Z,1.70
2023-10-29T19:18:35.852Z,1.50
2023-10-29T19:21:03.405Z,1.53
2023-10-29T19:23:33.099Z,3.20
2023-10-29T19:26:03.732Z,2.10
2023-10-29T19:28:30.966Z,1.57
2023-10-29T19:31:16.765Z,1.87
2023-10-29T19:33:45.814Z,1.40
2023-10-29T19:36:14.992Z,1.67
2023-10-29T19:38:43.230Z,1.67
2023-10-29T19:41:10.969Z,1.83
2023-10-29T19:43:38.548Z,1.80
2023-10-29T19:46:06.054Z,2.10
2023-10-29T19:48:33.497Z,2.73
2023-10-29T19:51:06.532Z,2.83
2023-10-29T19:53:35.861Z,2.37
2023-10-29T19:56:07.866Z,2.57
2023-10-29T19:58:35.581Z,2.60
2023-10-29T20:01:09.642Z,2.70
2023-10-29T20:03:37.757Z,2.47
2023-10-29T20:06:11.175Z,2.23
2023-10-29T20:08:40.631Z,2.47
2023-10-29T20:11:09.655Z,2.30
2023-10-29T20:13:43.937Z,2.10
2023-10-29T20:16:11.592Z,2.27
2023-10-29T20:18:39.109Z,2.50
2023-10-29T20:21:18.025Z,2.90
2023-10-29T20:23:47.532Z,2.87
2023-10-29T20:26:25.164Z,2.30
2023-10-29T20:28:53.189Z,2.00
2023-10-29T20:31:20.693Z,1.77
2023-10-29T20:33:48.206Z,1.43
2023-10-29T20:36:15.803Z,1.60
2023-10-29T20:38:43.376Z,1.40
2023-10-29T20:41:10.904Z,1.30
2023-10-29T20:43:39.221Z,1.40
2023-10-29T20:46:06.659Z,1.50
2023-10-29T20:48:34.171Z,1.30
2023-10-29T20:51:02.248Z,1.17
2023-10-29T20:53:30.338Z,1.17
2023-10-29T20:55:57.587Z,2.33
2023-10-29T20:58:24.719Z,1.30
2023-10-29T21:00:52.737Z,1.53
2023-10-29T21:03:20.280Z,1.13
2023-10-29T21:05:47.738Z,1.67
2023-10-29T21:08:15.031Z,3.00
2023-10-29T21:10:42.662Z,1.33
2023-10-29T21:13:09.763Z,1.30
2023-10-29T21:15:41.560Z,1.20
2023-10-29T21:18:09.606Z,1.50
2023-10-29T21:20:36.890Z,1.23
2023-10-29T21:23:04.031Z,1.80
2023-10-29T21:25:31.638Z,1.67
2023-10-29T21:27:59.037Z,1.40
2023-10-29T21:30:26.475Z,1.50
2023-10-29T21:32:53.817Z,1.57
2023-10-29T21:35:21.086Z,1.50
2023-10-29T21:37:48.786Z,1.47
2023-10-29T21:40:16.744Z,1.70
2023-10-29T21:42:44.827Z,1.30
2023-10-29T21:45:13.878Z,1.93
2023-10-29T21:47:42.032Z,1.70
2023-10-29T21:50:13.619Z,1.70
2023-10-29T21:52:42.981Z,1.77
2023-10-29T21:55:10.847Z,1.50
2023-10-29T21:57:38.942Z,43.77
2023-10-29T22:00:07.735Z,1.67
2023-10-29T22:02:35.619Z,1.70
2023-10-29T22:05:03.537Z,1.60
2023-10-29T22:07:31.687Z,1.93
2023-10-29T22:10:00.267Z,2.57
2023-10-29T22:12:28.048Z,1.50
2023-10-29T22:14:56.320Z,1.70
2023-10-29T22:17:24.781Z,1.60
2023-10-29T22:19:52.387Z,1.80
2023-10-29T22:22:19.976Z,1.90
2023-10-29T22:24:48.033Z,1.83
2023-10-29T22:27:15.881Z,1.93
2023-10-29T22:29:43.933Z,1.60
2023-10-29T22:32:13.371Z,1.60
2023-10-29T22:34:41.669Z,1.80
2023-10-29T22:37:09.130Z,3.10
2023-10-29T22:39:37.450Z,2.00
2023-10-29T22:42:05.232Z,7.50
2023-10-29T22:44:33.709Z,2.00
2023-10-29T22:47:01.667Z,1.80
2023-10-29T22:49:29.816Z,2.80
2023-10-29T22:51:57.694Z,2.10
2023-10-29T22:54:25.806Z,2.40
2023-10-29T22:56:53.624Z,2.07
2023-10-29T22:59:21.900Z,2.00
2023-10-29T23:01:49.644Z,2.40
2023-10-29T23:04:18.246Z,2.30
2023-10-29T23:06:45.824Z,2.23
2023-10-29T23:09:13.776Z,2.20
2023-10-29T23:11:41.834Z,2.97
2023-10-29T23:14:09.847Z,2.47
2023-10-29T23:16:37.796Z,2.20
2023-10-29T23:19:06.077Z,2.50
2023-10-29T23:21:33.660Z,2.60
2023-10-29T23:24:02.258Z,2.10
2023-10-29T23:26:30.980Z,2.27
2023-10-29T23:28:59.274Z,2.10
2023-10-29T23:31:26.886Z,2.20
2023-10-29T23:33:55.650Z,2.30
2023-10-29T23:36:23.422Z,2.30
2023-10-29T23:38:51.641Z,2.13
2023-10-29T23:41:19.468Z,2.20
2023-10-29T23:43:47.431Z,2.50
2023-10-29T23:46:15.452Z,2.37
2023-10-29T23:48:43.492Z,2.10
2023-10-29T23:51:11.483Z,2.30
2023-10-29T23:53:39.514Z,2.50
2023-10-29T23:56:07.551Z,2.13
2023-10-29T23:58:35.403Z,2.10
